createdAt,value
2022-07-28T00:01:39.666Z,14.40
2022-07-28T00:04:28.442Z,14.40
2022-07-28T00:07:17.201Z,14.40
2022-07-28T00:10:06.824Z,14.40
2022-07-28T00:12:55.543Z,14.40
2022-07-28T00:15:44.211Z,14.30
2022-07-28T00:18:34.344Z,14.30
2022-07-28T00:21:24.479Z,14.30
2022-07-28T00:24:13.857Z,14.30
2022-07-28T00:27:02.755Z,14.20
2022-07-28T00:29:51.808Z,14.20
2022-07-28T00:32:40.518Z,14.20
2022-07-28T00:35:31.019Z,14.10
2022-07-28T00:38:20.459Z,14.10
2022-07-28T00:41:14.597Z,14.00
2022-07-28T00:44:03.679Z,14.00
2022-07-28T00:46:52.471Z,14.00
2022-07-28T00:49:41.597Z,14.00
2022-07-28T00:52:32.058Z,14.00
2022-07-28T00:55:21.984Z,14.00
2022-07-28T00:58:10.747Z,14.00
2022-07-28T01:00:59.848Z,13.90
2022-07-28T01:03:55.163Z,13.90
2022-07-28T01:07:09.826Z,13.90
2022-07-28T01:10:07.694Z,13.90
2022-07-28T01:13:03.927Z,13.90
2022-07-28T01:15:57.667Z,13.90
2022-07-28T01:18:55.858Z,13.90
2022-07-28T01:21:46.880Z,13.80
2022-07-28T01:24:45.646Z,13.80
2022-07-28T01:27:52.581Z,13.80
2022-07-28T01:30:45.062Z,13.70
2022-07-28T01:33:39.610Z,13.70
2022-07-28T01:36:32.711Z,13.70
2022-07-28T01:39:23.405Z,13.70
2022-07-28T01:42:14.592Z,13.60
2022-07-28T01:45:04.572Z,13.70
2022-07-28T01:47:56.808Z,13.70
2022-07-28T01:50:47.857Z,13.60
2022-07-28T01:53:39.676Z,13.60
2022-07-28T01:56:30.733Z,13.60
2022-07-28T01:59:20.624Z,13.50
2022-07-28T02:02:11.736Z,13.50
2022-07-28T02:05:03.702Z,13.40
2022-07-28T02:07:53.525Z,13.40
2022-07-28T02:10:44.003Z,13.30
2022-07-28T02:13:33.756Z,13.30
2022-07-28T02:16:26.093Z,13.30
2022-07-28T02:19:17.073Z,13.30
2022-07-28T02:22:08.200Z,13.20
2022-07-28T02:24:57.303Z,13.20
2022-07-28T02:27:50.073Z,13.20
2022-07-28T02:30:49.302Z,13.10
2022-07-28T02:34:00.338Z,13.10
2022-07-28T02:36:52.213Z,13.10
2022-07-28T02:40:00.394Z,13.00
2022-07-28T02:42:51.011Z,13.00
2022-07-28T02:45:44.268Z,13.00
2022-07-28T02:48:37.119Z,12.90
2022-07-28T02:51:29.152Z,12.90
2022-07-28T02:54:19.235Z,12.80
2022-07-28T02:57:10.652Z,12.80
2022-07-28T03:00:00.125Z,12.80
2022-07-28T03:02:49.850Z,12.70
2022-07-28T03:05:39.026Z,12.70
2022-07-28T03:08:28.041Z,12.70
2022-07-28T03:11:16.732Z,12.60
2022-07-28T03:14:06.836Z,12.60
2022-07-28T03:16:55.867Z,12.50
2022-07-28T03:19:44.894Z,12.50
2022-07-28T03:22:33.633Z,12.50
2022-07-28T03:25:27.864Z,12.40
2022-07-28T03:28:21.231Z,12.40
2022-07-28T03:31:13.496Z,12.30
2022-07-28T03:34:02.639Z,12.20
2022-07-28T03:36:58.302Z,12.10
2022-07-28T03:39:48.991Z,12.10
2022-07-28T03:42:39.044Z,12.10
2022-07-28T03:45:28.456Z,12.10
2022-07-28T03:48:18.747Z,12.10
2022-07-28T03:51:07.453Z,12.10
2022-07-28T03:53:56.129Z,12.20
2022-07-28T03:56:44.834Z,12.20
2022-07-28T03:59:34.055Z,12.20
2022-07-28T04:02:22.793Z,12.20
2022-07-28T04:05:14.876Z,12.10
2022-07-28T04:08:03.570Z,12.20
2022-07-28T04:10:53.484Z,12.20
2022-07-28T04:13:42.190Z,12.20
2022-07-28T04:16:30.946Z,12.20
2022-07-28T04:19:19.691Z,12.20
2022-07-28T04:22:09.837Z,12.20
2022-07-28T04:24:58.772Z,12.20
2022-07-28T04:27:47.474Z,12.30
2022-07-28T04:30:39.987Z,12.30
2022-07-28T04:33:32.977Z,12.30
2022-07-28T04:36:21.744Z,12.30
2022-07-28T04:39:12.415Z,12.30
2022-07-28T04:42:01.148Z,12.40
2022-07-28T04:44:49.817Z,12.40
2022-07-28T04:47:38.584Z,12.40
2022-07-28T04:50:27.474Z,12.30
2022-07-28T04:53:16.821Z,12.40
2022-07-28T04:56:07.201Z,12.40
2022-07-28T04:58:55.866Z,12.40
2022-07-28T05:01:44.708Z,12.50
2022-07-28T05:04:33.561Z,12.50
2022-07-28T05:07:24.320Z,12.50
2022-07-28T05:10:13.893Z,12.60
2022-07-28T05:13:08.155Z,12.60
2022-07-28T05:15:56.894Z,12.60
2022-07-28T05:18:45.569Z,12.60
2022-07-28T05:21:34.268Z,12.70
2022-07-28T05:24:23.007Z,12.70
2022-07-28T05:27:12.902Z,12.70
2022-07-28T05:30:02.997Z,12.70
2022-07-28T05:32:53.932Z,12.80
2022-07-28T05:35:42.640Z,12.90
2022-07-28T05:38:32.821Z,13.00
2022-07-28T05:41:21.623Z,13.00
2022-07-28T05:44:10.391Z,13.20
2022-07-28T05:47:00.621Z,13.30
2022-07-28T05:49:49.255Z,13.30
2022-07-28T05:52:38.093Z,13.40
2022-07-28T05:55:27.066Z,13.60
2022-07-28T05:58:15.866Z,13.80
2022-07-28T06:01:05.091Z,13.80
2022-07-28T06:04:10.125Z,13.80
2022-07-28T06:07:03.925Z,13.90
2022-07-28T06:09:52.598Z,13.80
2022-07-28T06:12:42.182Z,14.00
2022-07-28T06:15:30.871Z,14.10
2022-07-28T06:18:19.646Z,14.10
2022-07-28T06:21:09.757Z,14.20
2022-07-28T06:23:58.430Z,14.20
2022-07-28T06:26:48.241Z,14.30
2022-07-28T06:29:37.108Z,14.30
2022-07-28T06:32:25.818Z,14.40
2022-07-28T06:35:16.718Z,14.40
2022-07-28T06:38:06.994Z,14.50
2022-07-28T06:40:56.359Z,14.50
2022-07-28T06:43:45.878Z,14.50
2022-07-28T06:46:34.602Z,14.50
2022-07-28T06:49:23.413Z,14.60
2022-07-28T06:52:12.935Z,14.80
2022-07-28T06:55:03.097Z,15.00
2022-07-28T06:57:53.358Z,14.90
2022-07-28T07:00:42.028Z,14.90
2022-07-28T07:03:30.831Z,15.00
2022-07-28T07:06:19.508Z,15.10
2022-07-28T07:09:08.238Z,15.10
2022-07-28T07:12:00.007Z,15.10
2022-07-28T07:14:49.225Z,15.20
2022-07-28T07:17:38.602Z,15.40
2022-07-28T07:20:28.224Z,15.70
2022-07-28T07:23:17.049Z,15.70
2022-07-28T07:26:05.757Z,15.90
2022-07-28T07:28:55.857Z,16.00
2022-07-28T07:31:44.682Z,16.20
2022-07-28T07:34:33.438Z,16.30
2022-07-28T07:37:22.350Z,16.30
2022-07-28T07:40:11.200Z,16.40
2022-07-28T07:42:59.926Z,16.50
2022-07-28T07:45:50.092Z,16.50
2022-07-28T07:48:38.949Z,16.70
2022-07-28T07:51:27.664Z,16.80
2022-07-28T07:54:16.774Z,16.90
2022-07-28T07:57:06.802Z,17.00
2022-07-28T07:59:55.478Z,17.10
2022-07-28T08:02:45.669Z,17.10
2022-07-28T08:05:35.910Z,17.20
2022-07-28T08:08:25.101Z,17.50
2022-07-28T08:11:13.911Z,17.70
2022-07-28T08:14:02.673Z,17.80
2022-07-28T08:16:51.365Z,17.90
2022-07-28T08:19:41.608Z,18.10
2022-07-28T08:22:30.560Z,18.10
2022-07-28T08:25:19.572Z,18.20
2022-07-28T08:28:08.298Z,18.40
2022-07-28T08:30:57.017Z,18.60
2022-07-28T08:33:54.080Z,18.70
2022-07-28T08:36:45.008Z,19.00
2022-07-28T08:39:36.187Z,19.70
2022-07-28T08:42:35.600Z,20.40
2022-07-28T08:45:27.560Z,20.90
2022-07-28T08:48:22.570Z,21.40
2022-07-28T08:51:12.245Z,21.60
2022-07-28T08:54:04.559Z,21.40
2022-07-28T08:56:53.637Z,21.10
2022-07-28T08:59:42.647Z,20.80
2022-07-28T09:02:32.993Z,20.50
2022-07-28T09:05:22.978Z,20.30
2022-07-28T09:08:12.997Z,20.20
2022-07-28T09:11:03.112Z,20.10
2022-07-28T09:13:54.040Z,20.30
2022-07-28T09:16:43.223Z,20.40
2022-07-28T09:19:34.312Z,20.50
2022-07-28T09:22:24.652Z,20.40
2022-07-28T09:25:20.322Z,20.20
2022-07-28T09:28:12.885Z,20.30
2022-07-28T09:31:08.945Z,20.50
2022-07-28T09:34:01.534Z,20.50
2022-07-28T09:36:51.522Z,20.80
2022-07-28T09:39:40.331Z,21.00
2022-07-28T09:42:46.878Z,21.20
2022-07-28T09:45:37.073Z,21.50
2022-07-28T09:48:25.946Z,21.90
2022-07-28T09:51:15.277Z,22.20
2022-07-28T09:54:12.085Z,22.40
2022-07-28T09:57:01.093Z,22.50
2022-07-28T09:59:52.093Z,22.60
2022-07-28T10:02:51.230Z,22.70
2022-07-28T10:05:44.552Z,22.50
2022-07-28T10:08:48.015Z,22.50
2022-07-28T10:11:41.529Z,22.50
2022-07-28T10:14:33.977Z,22.50
2022-07-28T10:17:40.198Z,22.40
2022-07-28T10:20:31.456Z,22.40
2022-07-28T10:23:21.453Z,22.40
2022-07-28T10:26:13.136Z,22.30
2022-07-28T10:29:06.639Z,22.20
2022-07-28T10:31:59.014Z,22.20
2022-07-28T10:35:01.053Z,22.30
2022-07-28T10:37:59.905Z,22.40
2022-07-28T10:40:49.583Z,22.70
2022-07-28T10:43:42.577Z,22.90
2022-07-28T10:46:32.754Z,22.90
2022-07-28T10:49:22.406Z,22.90
2022-07-28T10:55:39.037Z,22.90
2022-07-28T10:58:39.325Z,23.00
2022-07-28T11:01:53.102Z,23.10
2022-07-28T11:04:59.274Z,23.40
2022-07-28T11:07:48.195Z,23.40
2022-07-28T11:10:51.868Z,23.40
2022-07-28T11:13:41.131Z,23.50
2022-07-28T11:16:36.045Z,23.60
2022-07-28T11:19:36.733Z,23.70
2022-07-28T11:22:35.193Z,23.60
2022-07-28T11:25:24.462Z,23.60
2022-07-28T11:28:14.648Z,23.40
2022-07-28T11:31:03.432Z,23.40
2022-07-28T11:33:59.235Z,23.50
2022-07-28T11:37:03.810Z,23.70
2022-07-28T11:39:52.715Z,23.90
2022-07-28T11:42:42.234Z,24.10
2022-07-28T11:45:38.476Z,24.40
2022-07-28T11:48:29.592Z,24.80
2022-07-28T11:51:18.317Z,25.00
2022-07-28T11:54:17.867Z,24.80
2022-07-28T11:57:09.880Z,24.50
2022-07-28T12:00:02.838Z,24.20
2022-07-28T12:02:53.052Z,24.10
2022-07-28T12:05:43.113Z,24.10
2022-07-28T12:08:51.234Z,24.20
2022-07-28T12:11:41.730Z,24.20
2022-07-28T12:14:30.479Z,23.90
2022-07-28T12:17:19.190Z,23.90
2022-07-28T12:20:15.286Z,23.70
2022-07-28T12:23:07.074Z,23.80
2022-07-28T12:25:55.757Z,23.90
2022-07-28T12:28:51.561Z,23.90
2022-07-28T12:31:42.416Z,24.00
2022-07-28T12:34:32.188Z,23.90
2022-07-28T12:37:23.697Z,23.90
2022-07-28T12:40:14.302Z,24.10
2022-07-28T12:43:03.254Z,24.30
2022-07-28T12:45:52.004Z,24.30
2022-07-28T12:48:41.968Z,24.30
2022-07-28T12:51:35.468Z,24.30
2022-07-28T12:54:37.381Z,24.40
2022-07-28T12:57:48.329Z,24.50
2022-07-28T13:00:38.035Z,24.40
2022-07-28T13:03:28.538Z,24.30
2022-07-28T13:06:17.243Z,24.20
2022-07-28T13:09:06.335Z,24.10
2022-07-28T13:12:14.739Z,24.20
2022-07-28T13:15:06.964Z,24.30
2022-07-28T13:17:57.191Z,24.40
2022-07-28T13:20:50.214Z,24.60
2022-07-28T13:23:39.253Z,24.80
2022-07-28T13:26:27.923Z,25.10
2022-07-28T13:29:18.303Z,25.00
2022-07-28T13:32:08.078Z,25.10
2022-07-28T13:34:57.152Z,25.50
2022-07-28T13:37:45.897Z,25.60
2022-07-28T13:40:34.546Z,25.70
2022-07-28T13:43:23.244Z,25.60
2022-07-28T13:46:26.647Z,25.80
2022-07-28T13:49:18.241Z,25.80
2022-07-28T13:52:13.166Z,25.30
2022-07-28T13:55:04.211Z,25.00
2022-07-28T13:57:53.198Z,24.70
2022-07-28T14:00:41.944Z,24.60
2022-07-28T14:03:50.753Z,24.50
2022-07-28T14:06:41.817Z,24.50
2022-07-28T14:09:30.584Z,24.50
2022-07-28T14:12:19.579Z,24.50
2022-07-28T14:15:11.005Z,24.50
2022-07-28T14:17:59.750Z,24.50
2022-07-28T14:20:49.973Z,24.50
2022-07-28T14:23:38.690Z,24.60
2022-07-28T14:26:36.015Z,24.50
2022-07-28T14:29:26.051Z,24.50
2022-07-28T14:32:15.120Z,24.50
2022-07-28T14:35:03.917Z,24.60
2022-07-28T14:41:02.768Z,24.60
2022-07-28T14:43:51.507Z,24.50
2022-07-28T14:46:40.218Z,24.50
2022-07-28T14:49:29.654Z,24.50
2022-07-28T14:52:18.309Z,24.50
2022-07-28T14:55:09.496Z,24.70
2022-07-28T14:57:58.435Z,24.50
2022-07-28T15:00:47.166Z,24.50
2022-07-28T15:03:36.629Z,24.50
2022-07-28T15:06:26.122Z,24.50
2022-07-28T15:09:14.879Z,24.50
2022-07-28T15:12:05.380Z,24.70
2022-07-28T15:14:54.206Z,24.60
2022-07-28T15:17:42.901Z,24.70
2022-07-28T15:20:31.680Z,24.50
2022-07-28T15:23:20.446Z,24.30
2022-07-28T15:26:09.162Z,24.20
2022-07-28T15:28:59.309Z,24.10
2022-07-28T15:31:48.930Z,24.20
2022-07-28T15:34:37.769Z,24.30
2022-07-28T15:37:26.727Z,24.20
2022-07-28T15:40:15.606Z,24.10
2022-07-28T15:43:04.421Z,24.00
2022-07-28T15:45:56.943Z,23.90
2022-07-28T15:48:46.064Z,23.80
2022-07-28T15:51:35.697Z,23.80
2022-07-28T15:54:24.454Z,23.80
2022-07-28T15:57:14.006Z,23.80
2022-07-28T16:00:02.750Z,23.80
2022-07-28T16:02:54.019Z,23.90
2022-07-28T16:05:44.172Z,23.90
2022-07-28T16:08:32.867Z,23.90
2022-07-28T16:11:21.604Z,23.90
2022-07-28T16:14:10.587Z,23.90
2022-07-28T16:16:59.264Z,24.00
2022-07-28T16:19:51.296Z,23.90
2022-07-28T16:22:41.225Z,23.90
2022-07-28T16:25:31.366Z,24.00
2022-07-28T16:28:20.055Z,24.10
2022-07-28T16:31:09.086Z,24.00
2022-07-28T16:33:57.962Z,23.90
2022-07-28T16:36:48.351Z,23.90
2022-07-28T16:39:37.258Z,23.90
2022-07-28T16:42:26.337Z,23.90
2022-07-28T16:45:15.043Z,23.90
2022-07-28T16:48:04.331Z,23.80
2022-07-28T16:50:53.109Z,23.80
2022-07-28T16:53:43.190Z,23.80
2022-07-28T16:56:31.931Z,23.70
2022-07-28T16:59:20.673Z,23.70
2022-07-28T17:02:09.475Z,23.70
2022-07-28T17:04:58.880Z,23.60
2022-07-28T17:07:47.728Z,23.60
2022-07-28T17:10:38.066Z,23.70
2022-07-28T17:13:26.969Z,23.70
2022-07-28T17:16:15.987Z,23.70
2022-07-28T17:19:05.130Z,23.60
2022-07-28T17:21:53.799Z,23.50
2022-07-28T17:24:42.505Z,23.50
2022-07-28T17:27:37.735Z,23.40
2022-07-28T17:30:30.094Z,23.50
2022-07-28T17:33:19.209Z,23.40
2022-07-28T17:36:08.681Z,23.40
2022-07-28T17:38:57.443Z,23.30
2022-07-28T17:41:46.109Z,23.20
2022-07-28T17:44:36.274Z,23.20
2022-07-28T17:47:36.237Z,23.10
2022-07-28T17:50:25.315Z,23.00
2022-07-28T17:53:14.167Z,22.90
2022-07-28T17:56:03.103Z,22.90
2022-07-28T17:58:55.631Z,22.80
2022-07-28T18:01:45.937Z,22.80
2022-07-28T18:04:34.727Z,22.60
2022-07-28T18:07:23.447Z,22.60
2022-07-28T18:10:12.302Z,22.50
2022-07-28T18:13:01.016Z,22.50
2022-07-28T18:15:50.123Z,22.40
2022-07-28T18:18:40.406Z,22.30
2022-07-28T18:21:29.169Z,22.20
2022-07-28T18:24:18.578Z,22.20
2022-07-28T18:27:07.661Z,22.20
2022-07-28T18:29:56.348Z,22.10
2022-07-28T18:32:45.281Z,22.10
2022-07-28T18:35:35.506Z,22.00
2022-07-28T18:38:26.320Z,22.00
2022-07-28T18:41:15.047Z,22.00
2022-07-28T18:44:03.954Z,22.00
2022-07-28T18:46:52.695Z,21.90
2022-07-28T18:49:41.730Z,22.00
2022-07-28T18:52:31.937Z,21.90
2022-07-28T18:55:20.640Z,21.90
2022-07-28T18:58:09.318Z,21.80
2022-07-28T19:00:58.019Z,21.70
2022-07-28T19:03:47.160Z,21.70
2022-07-28T19:06:37.000Z,21.60
2022-07-28T19:09:27.139Z,21.50
2022-07-28T19:12:16.274Z,21.50
2022-07-28T19:15:06.369Z,21.40
2022-07-28T19:18:10.490Z,21.40
2022-07-28T19:21:00.334Z,21.30
2022-07-28T19:23:49.280Z,21.20
2022-07-28T19:26:39.392Z,21.10
2022-07-28T19:29:28.189Z,21.10
2022-07-28T19:32:16.881Z,21.00
2022-07-28T19:35:06.119Z,21.00
2022-07-28T19:37:56.560Z,20.90
2022-07-28T19:40:45.335Z,20.90
2022-07-28T19:43:36.280Z,20.80
2022-07-28T19:46:26.185Z,20.80
2022-07-28T19:49:16.991Z,20.70
2022-07-28T19:52:06.215Z,20.70
2022-07-28T19:54:55.862Z,20.70
2022-07-28T19:57:45.434Z,20.60
2022-07-28T20:00:35.520Z,20.60
2022-07-28T20:04:02.564Z,20.50
2022-07-28T20:06:33.761Z,20.50
2022-07-28T20:09:22.804Z,20.40
2022-07-28T20:12:11.549Z,20.40
2022-07-28T20:15:00.283Z,20.40
2022-07-28T20:17:50.361Z,20.40
2022-07-28T20:20:39.080Z,20.40
2022-07-28T20:23:27.735Z,20.40
2022-07-28T20:26:17.362Z,20.30
2022-07-28T20:29:12.312Z,20.20
2022-07-28T20:32:01.012Z,20.20
2022-07-28T20:34:51.542Z,20.10
2022-07-28T20:37:40.916Z,20.10
2022-07-28T20:40:29.657Z,20.10
2022-07-28T20:43:18.352Z,20.10
2022-07-28T20:46:07.131Z,20.10
2022-07-28T20:48:55.975Z,20.00
2022-07-28T20:51:50.999Z,20.00
2022-07-28T20:54:40.242Z,20.00
2022-07-28T20:57:29.048Z,20.00
2022-07-28T21:00:18.529Z,20.00
2022-07-28T21:03:07.276Z,20.00
2022-07-28T21:05:55.993Z,20.10
2022-07-28T21:08:46.308Z,20.00
2022-07-28T21:11:37.694Z,19.90
2022-07-28T21:14:26.434Z,20.00
2022-07-28T21:17:15.673Z,19.90
2022-07-28T21:20:04.481Z,19.90
2022-07-28T21:22:53.355Z,19.80
2022-07-28T21:25:45.267Z,19.80
2022-07-28T21:28:51.360Z,19.70
2022-07-28T21:32:02.258Z,19.70
2022-07-28T21:34:48.920Z,19.70
2022-07-28T21:37:37.616Z,19.70
2022-07-28T21:40:26.464Z,19.60
2022-07-28T21:43:16.683Z,19.60
2022-07-28T21:46:05.721Z,19.60
2022-07-28T21:48:56.223Z,19.60
2022-07-28T21:51:47.182Z,19.50
2022-07-28T21:54:35.846Z,19.60
2022-07-28T21:57:25.239Z,19.50
2022-07-28T22:00:17.625Z,19.50
2022-07-28T22:03:06.342Z,19.50
2022-07-28T22:05:58.199Z,19.50
2022-07-28T22:08:50.134Z,19.50
2022-07-28T22:11:38.851Z,19.50
2022-07-28T22:14:32.247Z,19.40
2022-07-28T22:17:22.372Z,19.40
2022-07-28T22:20:12.393Z,19.30
2022-07-28T22:23:01.072Z,19.30
2022-07-28T22:25:49.756Z,19.20
2022-07-28T22:28:39.266Z,19.20
2022-07-28T22:31:28.027Z,19.10
2022-07-28T22:34:18.362Z,19.10
2022-07-28T22:37:12.875Z,19.10
2022-07-28T22:40:01.959Z,19.10
2022-07-28T22:42:50.668Z,19.10
2022-07-28T22:45:50.707Z,19.00
2022-07-28T22:48:40.566Z,19.00
2022-07-28T22:51:30.738Z,19.00
2022-07-28T22:54:19.719Z,19.00
2022-07-28T22:57:08.537Z,19.00
2022-07-28T22:59:57.277Z,18.90
2022-07-28T23:02:45.978Z,18.90
2022-07-28T23:05:35.870Z,18.80
2022-07-28T23:08:26.170Z,18.80
2022-07-28T23:11:15.233Z,18.70
2022-07-28T23:14:03.880Z,18.70
2022-07-28T23:16:52.581Z,18.80
2022-07-28T23:19:41.238Z,18.80
2022-07-28T23:22:30.256Z,18.80
2022-07-28T23:25:20.344Z,18.90
2022-07-28T23:28:09.725Z,18.90
2022-07-28T23:30:58.424Z,19.00
2022-07-28T23:33:55.290Z,19.00
2022-07-28T23:36:48.001Z,19.00
2022-07-28T23:39:36.729Z,18.90
2022-07-28T23:42:26.893Z,18.90
2022-07-28T23:45:15.690Z,18.90
2022-07-28T23:48:04.399Z,18.60
2022-07-28T23:50:53.096Z,17.90
2022-07-28T23:53:42.336Z,17.10
2022-07-28T23:56:31.088Z,16.40
2022-07-28T23:59:21.165Z,15.70
